Benton, Kentucky
Current Conditions -  °F | °C
As of 9:55 AM on Friday 28 Nov 2014 (Local Time) from KCEY Reporting Station
Clear Clear  
Wind Chill: 28°   Ceiling: Unl
Heat Index: 36°   Visibility: 10mi
Dew Point: 25°   Wind: 10mph
Humidity: 65%   Direction: 200°SSW
Pressure: 30.37"   Gusts: NA
Location:  36.86°N, 88.35°W
Report Text: KCEY 281555Z AUTO 20009KT 10SM CLR 02/M04 A3037 RMK AO1
Loading
Personal Weather Stations






























Interactive Weather Map New forecast layout! Learn more

10-Day Weather Forecast

Advertisements
Track Severe Weather on mobile